createdAt,value
2019-01-26T00:00:31.586Z,70.928955
2019-01-26T00:01:41.093Z,70.404053
2019-01-26T00:02:50.608Z,70.300293
2019-01-26T00:04:00.136Z,70.928955
2019-01-26T00:05:09.662Z,70.611572
2019-01-26T00:06:19.221Z,70.721436
2019-01-26T00:07:28.769Z,70.507812
2019-01-26T00:08:38.335Z,70.611572
2019-01-26T00:09:47.877Z,70.477295
2019-01-26T00:10:57.394Z,70.404053
2019-01-26T00:12:07.915Z,70.611572
2019-01-26T00:13:17.424Z,70.056152
2019-01-26T00:14:27.010Z,70.056152
2019-01-26T00:15:36.617Z,70.373535
2019-01-26T00:16:46.049Z,70.300293
2019-01-26T00:17:55.579Z,70.263672
2019-01-26T00:19:05.128Z,71.008301
2019-01-26T00:20:14.665Z,70.373535
2019-01-26T00:21:24.185Z,70.056152
2019-01-26T00:22:33.720Z,70.056152
2019-01-26T00:23:43.290Z,70.056152
2019-01-26T00:24:52.867Z,70.373535
2019-01-26T00:26:02.399Z,69.946289
2019-01-26T00:27:11.935Z,69.73877
2019-01-26T00:28:21.483Z,69.842529
2019-01-26T00:29:31.030Z,69.946289
2019-01-26T00:30:40.550Z,69.73877
2019-01-26T00:31:50.078Z,69.628906
2019-01-26T00:32:59.613Z,69.525146
2019-01-26T00:34:09.165Z,69.104004
2019-01-26T00:35:18.717Z,68.890381
2019-01-26T00:36:28.215Z,69.000244
2019-01-26T00:37:37.755Z,69.207764
2019-01-26T00:38:47.277Z,69.421387
2019-01-26T00:39:56.837Z,68.890381
2019-01-26T00:41:06.384Z,69.000244
2019-01-26T00:42:15.940Z,69.207764
2019-01-26T00:43:25.468Z,69.000244
2019-01-26T00:44:35.017Z,69.104004
2019-01-26T00:45:44.544Z,69.207764
2019-01-26T00:46:54.065Z,68.652344
2019-01-26T00:48:03.586Z,68.438721
2019-01-26T00:49:13.137Z,68.438721
2019-01-26T00:50:22.696Z,68.121338
2019-01-26T00:51:32.241Z,67.700195
2019-01-26T00:52:41.764Z,68.54248
2019-01-26T00:53:51.281Z,68.438721
2019-01-26T00:55:00.822Z,68.859863
2019-01-26T00:56:10.349Z,68.756104
2019-01-26T00:57:19.877Z,69.177246
2019-01-26T00:58:29.402Z,69.281006
2019-01-26T00:59:38.937Z,69.708252
2019-01-26T01:00:48.451Z,70.97168
2019-01-26T01:01:57.988Z,71.923828
2019-01-26T01:03:07.496Z,71.392822
2019-01-26T01:04:17.011Z,70.654297
2019-01-26T01:05:26.568Z,70.233154
2019-01-26T01:06:36.116Z,70.76416
2019-01-26T01:07:45.685Z,71.710205
2019-01-26T01:08:55.153Z,71.502686
2019-01-26T01:10:04.722Z,71.710205
2019-01-26T01:11:14.283Z,71.923828
2019-01-26T01:12:23.807Z,71.466064
2019-01-26T01:13:33.380Z,71.466064
2019-01-26T01:14:42.918Z,71.575928
2019-01-26T01:15:52.454Z,71.258545
2019-01-26T01:17:02.015Z,70.727539
2019-01-26T01:18:11.532Z,70.727539
2019-01-26T01:19:21.062Z,70.52002
2019-01-26T01:20:30.632Z,70.41626
2019-01-26T01:21:40.181Z,70.623779
2019-01-26T01:22:49.681Z,70.098877
2019-01-26T01:23:59.212Z,70.41626
2019-01-26T01:25:08.736Z,69.781494
2019-01-26T01:26:18.288Z,69.885254
2019-01-26T01:27:27.861Z,70.275879
2019-01-26T01:28:37.414Z,70.062256
2019-01-26T01:29:46.955Z,70.062256
2019-01-26T01:30:55.485Z,69.219971
2019-01-26T01:32:05.017Z,69.641113
2019-01-26T01:33:14.609Z,69.116211
2019-01-26T01:34:24.126Z,68.585205
2019-01-26T01:35:33.648Z,68.377686
2019-01-26T01:36:43.248Z,68.164062
2019-01-26T01:37:52.741Z,68.029785
2019-01-26T01:39:02.326Z,67.504883
2019-01-26T01:40:11.874Z,67.29126
2019-01-26T01:41:21.427Z,67.077637
2019-01-26T01:42:30.949Z,66.235352
2019-01-26T01:43:40.501Z,65.917969
2019-01-26T01:44:50.041Z,65.393066
2019-01-26T01:45:59.553Z,65.393066
2019-01-26T01:47:09.091Z,64.971924
2019-01-26T01:48:18.645Z,64.440918
2019-01-26T01:49:28.167Z,64.129639
2019-01-26T01:50:37.708Z,64.233398
2019-01-26T01:51:47.269Z,63.916016
2019-01-26T01:52:56.813Z,63.598633
2019-01-26T01:54:06.342Z,63.568115
2019-01-26T01:55:15.853Z,63.28125
2019-01-26T01:56:25.364Z,63.360596
2019-01-26T01:57:34.891Z,63.494873
2019-01-26T01:58:44.420Z,63.17749
2019-01-26T01:59:53.953Z,63.146973
2019-01-26T02:01:03.519Z,62.652588
2019-01-26T02:02:13.062Z,63.28125
2019-01-26T02:03:22.570Z,63.391113
2019-01-26T02:04:32.116Z,63.391113
2019-01-26T02:05:41.656Z,62.963867
2019-01-26T02:06:51.198Z,63.28125
2019-01-26T02:08:00.747Z,63.17749
2019-01-26T02:09:10.283Z,62.963867
2019-01-26T02:10:19.840Z,62.756348
2019-01-26T02:11:29.357Z,62.652588
2019-01-26T02:12:38.874Z,62.72583
2019-01-26T02:13:48.401Z,62.82959
2019-01-26T02:14:57.921Z,62.518311
2019-01-26T02:16:07.504Z,62.82959
2019-01-26T02:17:17.040Z,62.72583
2019-01-26T02:18:26.590Z,62.62207
2019-01-26T02:19:36.135Z,62.82959
2019-01-26T02:20:46.683Z,62.82959
2019-01-26T02:21:56.243Z,62.939453
2019-01-26T02:23:05.767Z,63.568115
2019-01-26T02:24:15.287Z,63.043213
2019-01-26T02:25:24.808Z,63.464355
2019-01-26T02:26:34.363Z,63.989258
2019-01-26T02:27:43.888Z,63.464355
2019-01-26T02:28:53.413Z,63.146973
2019-01-26T02:30:02.946Z,63.464355
2019-01-26T02:31:12.501Z,63.360596
2019-01-26T02:32:22.079Z,63.360596
2019-01-26T02:33:31.636Z,63.043213
2019-01-26T02:34:41.176Z,62.939453
2019-01-26T02:35:50.699Z,63.256836
2019-01-26T02:37:00.243Z,63.256836
2019-01-26T02:38:09.762Z,63.330078
2019-01-26T02:39:19.322Z,62.701416
2019-01-26T02:40:28.844Z,62.487793
2019-01-26T02:41:38.367Z,62.805176
2019-01-26T02:42:47.893Z,62.908936
2019-01-26T02:43:57.420Z,62.908936
2019-01-26T02:45:06.949Z,62.701416
2019-01-26T02:46:16.466Z,62.988281
2019-01-26T02:47:25.998Z,62.774658
2019-01-26T02:48:35.524Z,62.774658
2019-01-26T02:49:45.049Z,62.145996
2019-01-26T02:50:54.574Z,62.567139
2019-01-26T02:52:04.133Z,62.670898
2019-01-26T02:53:13.653Z,62.457275
2019-01-26T02:54:23.152Z,62.353516
2019-01-26T02:55:32.693Z,62.750244
2019-01-26T02:56:42.282Z,62.750244
2019-01-26T02:57:51.824Z,62.432861
2019-01-26T02:59:01.372Z,62.115479
2019-01-26T03:00:10.916Z,62.219238
2019-01-26T03:01:20.452Z,62.329102
2019-01-26T03:02:29.995Z,62.011719
2019-01-26T03:03:39.516Z,62.432861
2019-01-26T03:04:49.052Z,62.329102
2019-01-26T03:05:58.619Z,62.536621
2019-01-26T03:07:08.187Z,62.115479
2019-01-26T03:08:17.716Z,62.115479
2019-01-26T03:09:27.240Z,62.640381
2019-01-26T03:10:36.775Z,62.011719
2019-01-26T03:11:46.295Z,62.011719
2019-01-26T03:12:55.841Z,61.907959
2019-01-26T03:14:05.356Z,62.219238
2019-01-26T03:15:14.909Z,61.798096
2019-01-26T03:16:24.449Z,62.011719
2019-01-26T03:17:34.002Z,61.486816
2019-01-26T03:18:43.533Z,61.273193
2019-01-26T03:19:53.077Z,61.694336
2019-01-26T03:21:02.635Z,61.486816
2019-01-26T03:22:12.174Z,62.115479
2019-01-26T03:23:21.684Z,62.432861
2019-01-26T03:24:31.246Z,62.194824
2019-01-26T03:25:40.833Z,62.084961
2019-01-26T03:26:50.344Z,61.456299
2019-01-26T03:27:59.877Z,61.560059
2019-01-26T03:29:09.428Z,61.663818
2019-01-26T03:30:18.953Z,61.877441
2019-01-26T03:31:28.488Z,62.402344
2019-01-26T03:32:38.054Z,61.560059
2019-01-26T03:33:47.580Z,61.352539
2019-01-26T03:34:57.114Z,61.560059
2019-01-26T03:36:06.655Z,61.352539
2019-01-26T03:37:17.205Z,62.084961
2019-01-26T03:38:26.754Z,62.615967
2019-01-26T03:39:36.280Z,62.084961
2019-01-26T03:40:45.824Z,61.352539
2019-01-26T03:41:55.486Z,61.456299
2019-01-26T03:43:05.031Z,61.981201
2019-01-26T03:44:14.591Z,62.084961
2019-01-26T03:45:24.149Z,61.877441
2019-01-26T03:46:33.655Z,62.506104
2019-01-26T03:47:43.178Z,62.402344
2019-01-26T03:48:52.730Z,61.877441
2019-01-26T03:50:02.266Z,61.639404
2019-01-26T03:51:11.813Z,61.846924
2019-01-26T03:52:21.374Z,61.743164
2019-01-26T03:53:30.912Z,61.639404
2019-01-26T03:54:40.445Z,61.639404
2019-01-26T03:55:49.994Z,61.535645
2019-01-26T03:56:59.522Z,61.846924
2019-01-26T03:58:09.074Z,61.639404
2019-01-26T03:59:18.601Z,62.585449
2019-01-26T04:00:28.137Z,61.743164
2019-01-26T04:01:37.648Z,61.82251
2019-01-26T04:02:47.229Z,61.608887
2019-01-26T04:03:56.747Z,61.82251
2019-01-26T04:05:06.269Z,62.420654
2019-01-26T04:06:15.839Z,63.366699
2019-01-26T04:07:25.364Z,62.817383
2019-01-26T04:08:34.896Z,63.024902
2019-01-26T04:09:44.436Z,62.921143
2019-01-26T04:10:54.003Z,63.024902
2019-01-26T04:12:03.521Z,63.519287
2019-01-26T04:13:13.051Z,63.62915
2019-01-26T04:14:22.566Z,63.83667
2019-01-26T04:15:32.088Z,63.83667
2019-01-26T04:16:41.611Z,64.257812
2019-01-26T04:17:51.192Z,64.782715
2019-01-26T04:18:59.780Z,65.093994
2019-01-26T04:20:09.259Z,65.72876
2019-01-26T04:21:18.783Z,66.644287
2019-01-26T04:22:28.306Z,67.272949
2019-01-26T04:23:37.835Z,67.901611
2019-01-26T04:24:47.389Z,68.847656
2019-01-26T04:25:56.901Z,70.526123
2019-01-26T04:27:06.427Z,70.629883
2019-01-26T04:28:15.968Z,71.051025
2019-01-26T04:29:25.505Z,71.258545
2019-01-26T04:30:35.055Z,71.783447
2019-01-26T04:31:44.582Z,72.20459
2019-01-26T04:32:54.130Z,72.937012
2019-01-26T04:34:03.689Z,73.498535
2019-01-26T04:35:13.214Z,73.809814
2019-01-26T04:36:23.746Z,74.304199
2019-01-26T04:37:33.279Z,74.615479
2019-01-26T04:38:42.839Z,77.34375
2019-01-26T04:39:52.376Z,80.426025
2019-01-26T04:41:01.879Z,80.743408
2019-01-26T04:42:11.443Z,79.656982
2019-01-26T04:43:20.963Z,78.503418
2019-01-26T04:44:30.490Z,78.186035
2019-01-26T04:45:40.005Z,77.557373
2019-01-26T04:46:49.565Z,77.13623
2019-01-26T04:47:59.101Z,77.13623
2019-01-26T04:49:08.648Z,77.23999
2019-01-26T04:50:18.169Z,76.928711
2019-01-26T04:51:27.719Z,77.838135
2019-01-26T04:52:37.271Z,78.045654
2019-01-26T04:53:46.835Z,78.363037
2019-01-26T04:54:56.395Z,78.363037
2019-01-26T04:56:05.916Z,79.724121
2019-01-26T04:57:15.430Z,80.145264
2019-01-26T04:58:24.986Z,80.670166
2019-01-26T04:59:34.508Z,81.610107
2019-01-26T05:00:44.022Z,81.402588
2019-01-26T05:01:53.520Z,82.348633
2019-01-26T05:03:03.040Z,82.659912
2019-01-26T05:04:12.588Z,83.184814
2019-01-26T05:05:22.116Z,83.221436
2019-01-26T05:06:31.656Z,84.692383
2019-01-26T05:07:41.194Z,84.796143
2019-01-26T05:08:50.741Z,84.906006
2019-01-26T05:10:00.259Z,85.742188
2019-01-26T05:11:09.798Z,85.949707
2019-01-26T05:12:19.360Z,86.16333
2019-01-26T05:13:28.900Z,87.109375
2019-01-26T05:14:38.430Z,87.420654
2019-01-26T05:15:47.940Z,88.684082
2019-01-26T05:16:57.462Z,89.727783
2019-01-26T05:18:06.988Z,90.673828
2019-01-26T05:19:16.561Z,91.094971
2019-01-26T05:20:26.079Z,91.723633
2019-01-26T05:21:35.616Z,91.870117
2019-01-26T05:22:45.160Z,92.08374
2019-01-26T05:23:54.705Z,92.1875
2019-01-26T05:25:04.232Z,92.39502
2019-01-26T05:26:13.773Z,92.39502
2019-01-26T05:27:23.294Z,91.973877
2019-01-26T05:28:32.807Z,92.1875
2019-01-26T05:29:42.341Z,92.29126
2019-01-26T05:30:51.886Z,92.608643
2019-01-26T05:32:01.438Z,93.09082
2019-01-26T05:33:10.975Z,93.548584
2019-01-26T05:34:20.529Z,93.548584
2019-01-26T05:35:30.073Z,93.444824
2019-01-26T05:36:39.572Z,93.762207
2019-01-26T05:37:50.155Z,93.927002
2019-01-26T05:38:59.701Z,94.494629
2019-01-26T05:40:09.237Z,94.812012
2019-01-26T05:41:18.766Z,95.129395
2019-01-26T05:42:28.311Z,95.336914
2019-01-26T05:43:37.840Z,95.336914
2019-01-26T05:44:47.378Z,95.501709
2019-01-26T05:45:56.912Z,95.715332
2019-01-26T05:47:06.425Z,95.715332
2019-01-26T05:48:15.953Z,95.819092
2019-01-26T05:49:26.494Z,95.819092
2019-01-26T05:50:36.037Z,96.130371
2019-01-26T05:51:45.598Z,96.240234
2019-01-26T05:52:55.127Z,96.240234
2019-01-26T05:54:04.703Z,96.240234
2019-01-26T05:55:14.210Z,96.343994
2019-01-26T05:56:24.706Z,96.551514
2019-01-26T05:57:34.218Z,96.655273
2019-01-26T05:58:43.737Z,96.612549
2019-01-26T05:59:53.292Z,96.716309
2019-01-26T06:01:02.807Z,96.826172
2019-01-26T06:02:12.345Z,96.929932
2019-01-26T06:03:21.901Z,97.033691
2019-01-26T06:04:31.438Z,97.033691
2019-01-26T06:05:40.971Z,97.033691
2019-01-26T06:06:50.491Z,97.137451
2019-01-26T06:08:00.031Z,97.094727
2019-01-26T06:09:10.567Z,97.094727
2019-01-26T06:10:20.119Z,97.198486
2019-01-26T06:11:29.646Z,97.302246
2019-01-26T06:12:39.166Z,97.302246
2019-01-26T06:13:48.674Z,97.302246
2019-01-26T06:14:58.211Z,97.302246
2019-01-26T06:16:07.734Z,97.302246
2019-01-26T06:17:17.287Z,97.302246
2019-01-26T06:18:26.821Z,97.259521
2019-01-26T06:19:36.377Z,97.259521
2019-01-26T06:20:45.916Z,97.259521
2019-01-26T06:21:55.419Z,97.155762
2019-01-26T06:23:04.978Z,97.155762
2019-01-26T06:24:14.520Z,97.155762
2019-01-26T06:25:24.071Z,97.155762
2019-01-26T06:26:33.595Z,97.052002
2019-01-26T06:27:43.102Z,97.003174
2019-01-26T06:28:52.658Z,97.113037
2019-01-26T06:30:02.228Z,97.003174
2019-01-26T06:31:11.766Z,97.113037
2019-01-26T06:32:21.305Z,97.216797
2019-01-26T06:33:30.843Z,97.320557
2019-01-26T06:34:40.392Z,97.424316
2019-01-26T06:35:49.935Z,97.424316
2019-01-26T06:36:59.466Z,97.424316
2019-01-26T06:38:09.004Z,97.424316
2019-01-26T06:39:18.539Z,97.320557
2019-01-26T06:40:29.130Z,97.320557
2019-01-26T06:41:39.668Z,97.320557
2019-01-26T06:42:49.232Z,97.320557
2019-01-26T06:43:58.748Z,97.277832
2019-01-26T06:45:08.313Z,97.174072
2019-01-26T06:46:17.825Z,97.277832
2019-01-26T06:47:27.399Z,97.277832
2019-01-26T06:48:36.946Z,97.277832
2019-01-26T06:49:46.523Z,97.174072
2019-01-26T06:50:56.053Z,97.174072
2019-01-26T06:52:05.558Z,97.174072
2019-01-26T06:53:15.105Z,97.174072
2019-01-26T06:54:24.660Z,96.960449
2019-01-26T06:55:34.235Z,96.960449
2019-01-26T06:56:43.747Z,96.856689
2019-01-26T06:57:53.274Z,96.64917
2019-01-26T06:59:02.811Z,96.289062
2019-01-26T07:00:12.373Z,96.289062
2019-01-26T07:01:21.908Z,96.081543
2019-01-26T07:02:31.436Z,95.977783
2019-01-26T07:03:41.940Z,95.86792
2019-01-26T07:04:51.464Z,95.6604
2019-01-26T07:06:00.972Z,95.617676
2019-01-26T07:07:10.509Z,95.513916
2019-01-26T07:08:20.035Z,95.196533
2019-01-26T07:09:29.573Z,95.306396
2019-01-26T07:10:39.156Z,95.092773
2019-01-26T07:11:48.683Z,94.989014
2019-01-26T07:12:58.202Z,94.989014
2019-01-26T07:14:07.734Z,94.989014
2019-01-26T07:15:18.274Z,94.573975
2019-01-26T07:16:27.818Z,94.256592
2019-01-26T07:17:37.339Z,94.006348
2019-01-26T07:18:46.869Z,94.006348
2019-01-26T07:19:56.428Z,93.585205
2019-01-26T07:21:05.944Z,93.273926
2019-01-26T07:22:15.527Z,93.066406
2019-01-26T07:23:25.072Z,93.170166
2019-01-26T07:24:34.589Z,93.273926
2019-01-26T07:25:44.152Z,93.066406
2019-01-26T07:26:54.726Z,93.170166
2019-01-26T07:28:04.246Z,92.602539
2019-01-26T07:29:13.785Z,92.706299
2019-01-26T07:30:23.321Z,92.919922
2019-01-26T07:31:32.875Z,93.023682
2019-01-26T07:32:42.398Z,92.706299
2019-01-26T07:33:51.959Z,92.706299
2019-01-26T07:35:01.511Z,92.1875
2019-01-26T07:36:11.053Z,91.870117
2019-01-26T07:37:20.595Z,91.870117
2019-01-26T07:38:30.134Z,91.833496
2019-01-26T07:39:39.673Z,91.97998
2019-01-26T07:40:49.230Z,91.619873
2019-01-26T07:41:58.798Z,91.412354
2019-01-26T07:43:08.321Z,91.723633
2019-01-26T07:44:17.839Z,92.041016
2019-01-26T07:45:27.401Z,91.833496
2019-01-26T07:46:36.946Z,91.833496
2019-01-26T07:47:46.502Z,91.516113
2019-01-26T07:48:56.050Z,91.619873
2019-01-26T07:50:05.581Z,91.723633
2019-01-26T07:51:15.099Z,91.723633
2019-01-26T07:52:24.620Z,91.516113
2019-01-26T07:53:34.137Z,91.937256
2019-01-26T07:54:43.683Z,92.041016
2019-01-26T07:55:53.210Z,92.144775
2019-01-26T07:57:02.734Z,92.041016
2019-01-26T07:58:12.255Z,92.352295
2019-01-26T07:59:21.763Z,92.248535
2019-01-26T08:00:31.315Z,92.248535
2019-01-26T08:01:40.858Z,92.456055
2019-01-26T08:02:50.387Z,92.144775
2019-01-26T08:03:59.937Z,91.998291
2019-01-26T08:05:09.459Z,91.998291
2019-01-26T08:06:18.997Z,92.102051
2019-01-26T08:07:28.544Z,92.205811
2019-01-26T08:08:38.078Z,92.30957
2019-01-26T08:09:47.598Z,92.30957
2019-01-26T08:10:57.148Z,92.41333
2019-01-26T08:12:06.649Z,92.205811
2019-01-26T08:13:16.189Z,91.687012
2019-01-26T08:14:25.708Z,91.577148
2019-01-26T08:15:35.259Z,91.687012
2019-01-26T08:16:44.788Z,91.369629
2019-01-26T08:17:54.312Z,91.162109
2019-01-26T08:19:03.872Z,90.95459
2019-01-26T08:20:13.397Z,90.911865
2019-01-26T08:21:22.950Z,90.808105
2019-01-26T08:22:32.501Z,90.911865
2019-01-26T08:23:42.048Z,90.600586
2019-01-26T08:24:51.589Z,90.386963
2019-01-26T08:26:01.142Z,90.496826
2019-01-26T08:27:10.664Z,90.386963
2019-01-26T08:28:20.207Z,90.600586
2019-01-26T08:29:29.742Z,90.600586
2019-01-26T08:30:39.268Z,90.496826
2019-01-26T08:31:48.801Z,90.704346
2019-01-26T08:32:58.375Z,90.496826
2019-01-26T08:34:07.927Z,90.350342
2019-01-26T08:35:17.443Z,90.350342
2019-01-26T08:36:27.013Z,90.350342
2019-01-26T08:37:36.534Z,90.142822
2019-01-26T08:38:46.068Z,90.246582
2019-01-26T08:39:55.616Z,90.032959
2019-01-26T08:41:05.193Z,90.246582
2019-01-26T08:42:14.734Z,90.142822
2019-01-26T08:43:24.306Z,90.142822
2019-01-26T08:44:33.852Z,90.454102
2019-01-26T08:45:43.407Z,90.557861
2019-01-26T08:46:52.941Z,90.765381
2019-01-26T08:48:02.498Z,90.765381
2019-01-26T08:49:12.013Z,90.869141
2019-01-26T08:50:21.581Z,90.869141
2019-01-26T08:51:31.145Z,91.07666
2019-01-26T08:52:40.690Z,90.9729
2019-01-26T08:53:50.237Z,90.869141
2019-01-26T08:54:59.761Z,91.18042
2019-01-26T08:56:09.351Z,91.18042
2019-01-26T08:57:18.887Z,91.18042
2019-01-26T08:58:28.415Z,91.290283
2019-01-26T08:59:37.945Z,91.497803
2019-01-26T09:00:47.474Z,91.394043
2019-01-26T09:01:57.029Z,91.394043
2019-01-26T09:03:06.556Z,91.497803
2019-01-26T09:04:16.076Z,91.290283
2019-01-26T09:05:25.617Z,91.290283
2019-01-26T09:06:35.214Z,91.497803
2019-01-26T09:07:44.797Z,91.705322
2019-01-26T09:08:54.333Z,91.809082
2019-01-26T09:10:03.888Z,92.016602
2019-01-26T09:11:13.475Z,92.224121
2019-01-26T09:12:23.062Z,92.327881
2019-01-26T09:13:33.594Z,92.327881
2019-01-26T09:14:43.123Z,92.437744
2019-01-26T09:15:52.630Z,92.437744
2019-01-26T09:17:02.180Z,92.327881
2019-01-26T09:18:11.721Z,92.181396
2019-01-26T09:19:21.276Z,92.077637
2019-01-26T09:20:30.799Z,91.973877
2019-01-26T09:21:40.352Z,91.973877
2019-01-26T09:22:50.043Z,92.181396
2019-01-26T09:23:59.606Z,92.181396
2019-01-26T09:25:08.135Z,92.181396
2019-01-26T09:26:17.724Z,92.077637
2019-01-26T09:27:27.311Z,92.39502
2019-01-26T09:28:36.839Z,92.29126
2019-01-26T09:29:46.360Z,92.181396
2019-01-26T09:30:55.908Z,92.181396
2019-01-26T09:32:05.520Z,92.034912
2019-01-26T09:33:15.070Z,92.034912
2019-01-26T09:34:24.684Z,91.931152
2019-01-26T09:35:34.335Z,92.144775
2019-01-26T09:36:44.032Z,92.29126
2019-01-26T09:37:53.612Z,92.39502
2019-01-26T09:39:03.218Z,92.498779
2019-01-26T09:40:12.731Z,92.602539
2019-01-26T09:41:22.307Z,92.706299
2019-01-26T09:42:31.840Z,92.810059
2019-01-26T09:43:41.374Z,92.498779
2019-01-26T09:44:50.896Z,92.706299
2019-01-26T09:46:00.430Z,93.017578
2019-01-26T09:47:10.005Z,93.017578
2019-01-26T09:48:19.577Z,93.121338
2019-01-26T09:49:29.092Z,93.225098
2019-01-26T09:50:38.720Z,93.225098
2019-01-26T09:51:48.311Z,93.017578
2019-01-26T09:52:57.878Z,92.913818
2019-01-26T09:54:07.415Z,93.121338
2019-01-26T09:55:16.935Z,93.286133
2019-01-26T09:56:26.477Z,93.182373
2019-01-26T09:57:36.019Z,92.974854
2019-01-26T09:58:45.567Z,93.286133
2019-01-26T09:59:55.199Z,93.328857
2019-01-26T10:01:04.724Z,93.499756
2019-01-26T10:02:14.344Z,93.395996
2019-01-26T10:03:23.877Z,93.499756
2019-01-26T10:04:33.426Z,93.603516
2019-01-26T10:05:43.082Z,93.54248
2019-01-26T10:06:52.635Z,93.499756
2019-01-26T10:08:02.164Z,93.603516
2019-01-26T10:09:11.745Z,93.499756
2019-01-26T10:10:21.290Z,93.395996
2019-01-26T10:11:30.844Z,93.395996
2019-01-26T10:12:40.391Z,93.499756
2019-01-26T10:13:49.933Z,93.395996
2019-01-26T10:14:59.492Z,93.603516
2019-01-26T10:16:09.045Z,93.499756
2019-01-26T10:17:18.623Z,93.499756
2019-01-26T10:18:28.179Z,93.603516
2019-01-26T10:19:37.724Z,93.707275
2019-01-26T10:20:47.238Z,93.603516
2019-01-26T10:21:56.787Z,93.499756
2019-01-26T10:23:06.342Z,93.499756
2019-01-26T10:24:15.872Z,93.395996
2019-01-26T10:25:25.401Z,93.707275
2019-01-26T10:26:34.939Z,93.707275
2019-01-26T10:27:44.489Z,93.603516
2019-01-26T10:28:54.042Z,93.286133
2019-01-26T10:30:03.598Z,93.078613
2019-01-26T10:31:13.158Z,93.286133
2019-01-26T10:32:22.755Z,93.286133
2019-01-26T10:33:32.298Z,93.182373
2019-01-26T10:34:41.836Z,93.078613
2019-01-26T10:35:51.375Z,93.182373
2019-01-26T10:37:00.960Z,93.078613
2019-01-26T10:38:10.510Z,93.139648
2019-01-26T10:39:20.067Z,92.932129
2019-01-26T10:40:29.596Z,92.828369
2019-01-26T10:41:39.112Z,92.828369
2019-01-26T10:42:48.683Z,92.724609
2019-01-26T10:43:58.201Z,92.993164
2019-01-26T10:45:07.739Z,92.41333
2019-01-26T10:46:17.285Z,92.266846
2019-01-26T10:47:26.881Z,92.370605
2019-01-26T10:48:36.409Z,92.370605
2019-01-26T10:49:45.924Z,92.474365
2019-01-26T10:50:55.461Z,92.163086
2019-01-26T10:52:05.022Z,92.370605
2019-01-26T10:53:14.614Z,92.370605
2019-01-26T10:54:24.145Z,92.578125
2019-01-26T10:55:33.654Z,92.681885
2019-01-26T10:56:43.234Z,92.474365
2019-01-26T10:57:52.762Z,92.266846
2019-01-26T10:59:02.311Z,92.370605
2019-01-26T11:00:11.823Z,92.431641
2019-01-26T11:01:21.350Z,92.5354
2019-01-26T11:02:30.900Z,92.63916
2019-01-26T11:03:40.413Z,92.74292
2019-01-26T11:04:49.945Z,92.63916
2019-01-26T11:05:59.502Z,92.950439
2019-01-26T11:07:09.075Z,92.84668
2019-01-26T11:08:18.637Z,92.63916
2019-01-26T11:09:28.180Z,92.224121
2019-01-26T11:10:37.729Z,92.327881
2019-01-26T11:11:47.260Z,92.327881
2019-01-26T11:12:56.808Z,92.431641
2019-01-26T11:14:06.346Z,92.74292
2019-01-26T11:15:15.874Z,92.74292
2019-01-26T11:16:25.421Z,92.492676
2019-01-26T11:17:34.987Z,92.596436
2019-01-26T11:18:44.531Z,92.596436
2019-01-26T11:19:54.061Z,92.803955
2019-01-26T11:21:03.580Z,92.700195
2019-01-26T11:22:13.117Z,92.492676
2019-01-26T11:23:23.667Z,92.077637
2019-01-26T11:24:33.186Z,92.077637
2019-01-26T11:25:42.718Z,92.077637
2019-01-26T11:26:52.248Z,91.827393
2019-01-26T11:28:01.816Z,91.516113
2019-01-26T11:29:11.354Z,91.619873
2019-01-26T11:30:20.912Z,91.516113
2019-01-26T11:31:30.543Z,91.473389
2019-01-26T11:32:40.203Z,91.473389
2019-01-26T11:33:49.558Z,91.473389
2019-01-26T11:34:59.100Z,91.265869
2019-01-26T11:36:08.672Z,91.119385
2019-01-26T11:37:18.228Z,91.326904
2019-01-26T11:38:27.789Z,90.289307
2019-01-26T11:39:37.298Z,90.496826
2019-01-26T11:40:46.833Z,90.496826
2019-01-26T11:41:56.390Z,90.185547
2019-01-26T11:43:05.946Z,90.600586
2019-01-26T11:44:15.486Z,90.600586
2019-01-26T11:45:25.035Z,90.185547
2019-01-26T11:46:34.592Z,90.246582
2019-01-26T11:47:45.173Z,89.666748
2019-01-26T11:48:54.737Z,89.935303
2019-01-26T11:50:04.276Z,89.624023
2019-01-26T11:51:13.852Z,89.208984
2019-01-26T11:52:23.425Z,89.0625
2019-01-26T11:53:33.001Z,89.477539
2019-01-26T11:54:42.562Z,89.0625
2019-01-26T11:55:52.095Z,89.27002
2019-01-26T11:57:00.652Z,88.922119
2019-01-26T11:58:10.187Z,89.648438
2019-01-26T11:59:19.761Z,88.299561
2019-01-26T12:00:29.299Z,88.40332
2019-01-26T12:01:38.848Z,87.841797
2019-01-26T12:02:48.480Z,87.219238
2019-01-26T12:03:58.020Z,86.907959
2019-01-26T12:05:07.621Z,86.700439
2019-01-26T12:06:17.151Z,87.322998
2019-01-26T12:07:26.660Z,87.426758
2019-01-26T12:08:37.248Z,87.261963
2019-01-26T12:09:46.770Z,87.261963
2019-01-26T12:10:56.314Z,87.322998
2019-01-26T12:12:05.875Z,86.535645
2019-01-26T12:13:15.440Z,86.743164
2019-01-26T12:14:25.022Z,86.181641
2019-01-26T12:15:34.593Z,86.804199
2019-01-26T12:16:44.211Z,86.38916
2019-01-26T12:17:52.811Z,86.38916
2019-01-26T12:19:02.405Z,86.077881
2019-01-26T12:20:11.947Z,85.455322
2019-01-26T12:21:21.489Z,85.040283
2019-01-26T12:22:31.034Z,86.14502
2019-01-26T12:23:40.570Z,85.766602
2019-01-26T12:24:50.164Z,85.870361
2019-01-26T12:25:59.722Z,85.766602
2019-01-26T12:27:09.261Z,86.077881
2019-01-26T12:28:18.827Z,85.766602
2019-01-26T12:29:28.359Z,86.38916
2019-01-26T12:30:37.937Z,85.766602
2019-01-26T12:31:47.479Z,85.870361
2019-01-26T12:32:57.104Z,85.455322
2019-01-26T12:34:06.761Z,85.040283
2019-01-26T12:35:16.293Z,85.107422
2019-01-26T12:36:25.839Z,84.899902
2019-01-26T12:37:35.363Z,84.692383
2019-01-26T12:38:44.963Z,84.899902
2019-01-26T12:39:54.569Z,84.857178
2019-01-26T12:41:04.108Z,83.929443
2019-01-26T12:42:13.661Z,83.410645
2019-01-26T12:43:23.233Z,83.306885
2019-01-26T12:44:32.791Z,83.618164
2019-01-26T12:45:42.323Z,83.26416
2019-01-26T12:46:51.839Z,83.203125
2019-01-26T12:48:01.451Z,82.476807
2019-01-26T12:49:11.050Z,82.232666
2019-01-26T12:50:20.606Z,82.232666
2019-01-26T12:51:30.169Z,82.025146
2019-01-26T12:52:39.722Z,81.506348
2019-01-26T12:53:49.384Z,81.988525
2019-01-26T12:54:58.879Z,81.469727
2019-01-26T12:56:08.455Z,81.365967
2019-01-26T12:57:17.935Z,81.506348
2019-01-26T12:58:27.504Z,81.817627
2019-01-26T12:59:37.061Z,81.506348
2019-01-26T13:00:46.627Z,81.610107
2019-01-26T13:01:56.186Z,81.054688
2019-01-26T13:03:05.745Z,81.469727
2019-01-26T13:04:15.294Z,81.158447
2019-01-26T13:05:24.822Z,82.025146
2019-01-26T13:06:34.353Z,82.440186
2019-01-26T13:07:43.889Z,82.543945
2019-01-26T13:08:53.460Z,82.232666
2019-01-26T13:10:03.009Z,82.440186
2019-01-26T13:11:12.548Z,82.269287
2019-01-26T13:12:22.068Z,82.580566
2019-01-26T13:13:31.632Z,82.476807
2019-01-26T13:14:41.264Z,82.061768
2019-01-26T13:15:50.775Z,82.232666